sensor_id;sensor_type;location;lat;lon;timestamp;P1;durP1;ratioP1;P2;durP2;ratioP2
18322;SDS011;9287;49.456;11.064;2024-02-26T00:00:17;2.37;;;2.10;;
18322;SDS011;9287;49.456;11.064;2024-02-26T00:02:45;4.17;;;2.23;;
18322;SDS011;9287;49.456;11.064;2024-02-26T00:05:13;2.50;;;2.30;;
18322;SDS011;9287;49.456;11.064;2024-02-26T00:07:41;3.20;;;2.90;;
18322;SDS011;9287;49.456;11.064;2024-02-26T00:10:10;2.70;;;2.50;;
18322;SDS011;9287;49.456;11.064;2024-02-26T00:12:39;2.70;;;2.50;;
18322;SDS011;9287;49.456;11.064;2024-02-26T00:15:08;2.50;;;2.30;;
18322;SDS011;9287;49.456;11.064;2024-02-26T00:17:36;3.20;;;2.47;;
18322;SDS011;9287;49.456;11.064;2024-02-26T00:20:05;2.73;;;2.20;;
18322;SDS011;9287;49.456;11.064;2024-02-26T00:22:35;5.07;;;2.80;;
18322;SDS011;9287;49.456;11.064;2024-02-26T00:25:03;3.97;;;3.43;;
18322;SDS011;9287;49.456;11.064;2024-02-26T00:27:32;3.60;;;2.60;;
18322;SDS011;9287;49.456;11.064;2024-02-26T00:30:01;3.97;;;2.93;;
18322;SDS011;9287;49.456;11.064;2024-02-26T00:32:29;3.53;;;2.90;;
18322;SDS011;9287;49.456;11.064;2024-02-26T00:34:57;4.73;;;2.60;;
18322;SDS011;9287;49.456;11.064;2024-02-26T00:37:25;3.23;;;2.63;;
18322;SDS011;9287;49.456;11.064;2024-02-26T00:39:53;5.67;;;4.10;;
18322;SDS011;9287;49.456;11.064;2024-02-26T00:42:21;5.33;;;3.30;;
18322;SDS011;9287;49.456;11.064;2024-02-26T00:44:49;3.33;;;3.00;;
18322;SDS011;9287;49.456;11.064;2024-02-26T00:47:18;4.83;;;3.40;;
18322;SDS011;9287;49.456;11.064;2024-02-26T00:49:45;4.03;;;3.40;;
18322;SDS011;9287;49.456;11.064;2024-02-26T00:52:13;4.97;;;3.80;;
18322;SDS011;9287;49.456;11.064;2024-02-26T00:54:41;6.50;;;3.73;;
18322;SDS011;9287;49.456;11.064;2024-02-26T00:57:09;5.00;;;4.07;;
18322;SDS011;9287;49.456;11.064;2024-02-26T00:59:38;5.90;;;4.40;;
18322;SDS011;9287;49.456;11.064;2024-02-26T01:02:05;5.10;;;4.13;;
18322;SDS011;9287;49.456;11.064;2024-02-26T01:04:37;4.33;;;3.67;;
18322;SDS011;9287;49.456;11.064;2024-02-26T01:07:05;6.20;;;4.47;;
18322;SDS011;9287;49.456;11.064;2024-02-26T01:09:32;7.53;;;4.67;;
18322;SDS011;9287;49.456;11.064;2024-02-26T01:12:00;6.73;;;4.67;;
18322;SDS011;9287;49.456;11.064;2024-02-26T01:14:29;6.77;;;5.30;;
18322;SDS011;9287;49.456;11.064;2024-02-26T01:16:56;7.60;;;4.93;;
18322;SDS011;9287;49.456;11.064;2024-02-26T01:19:24;7.30;;;5.23;;
18322;SDS011;9287;49.456;11.064;2024-02-26T01:21:54;7.93;;;5.40;;
18322;SDS011;9287;49.456;11.064;2024-02-26T01:24:21;6.67;;;5.27;;
18322;SDS011;9287;49.456;11.064;2024-02-26T01:26:49;7.00;;;5.40;;
18322;SDS011;9287;49.456;11.064;2024-02-26T01:29:17;5.93;;;4.30;;
18322;SDS011;9287;49.456;11.064;2024-02-26T01:31:45;6.37;;;4.83;;
18322;SDS011;9287;49.456;11.064;2024-02-26T01:34:16;8.30;;;5.43;;
18322;SDS011;9287;49.456;11.064;2024-02-26T01:36:44;9.07;;;5.90;;
18322;SDS011;9287;49.456;11.064;2024-02-26T01:39:13;8.40;;;6.03;;
18322;SDS011;9287;49.456;11.064;2024-02-26T01:41:41;7.77;;;5.30;;
18322;SDS011;9287;49.456;11.064;2024-02-26T01:44:10;7.43;;;5.67;;
18322;SDS011;9287;49.456;11.064;2024-02-26T01:46:39;7.20;;;5.67;;
18322;SDS011;9287;49.456;11.064;2024-02-26T01:49:08;9.27;;;6.17;;
18322;SDS011;9287;49.456;11.064;2024-02-26T01:51:40;8.63;;;5.80;;
18322;SDS011;9287;49.456;11.064;2024-02-26T01:54:10;8.60;;;6.07;;
18322;SDS011;9287;49.456;11.064;2024-02-26T01:56:39;10.17;;;6.07;;
18322;SDS011;9287;49.456;11.064;2024-02-26T01:59:08;7.80;;;6.37;;
18322;SDS011;9287;49.456;11.064;2024-02-26T02:01:36;10.60;;;7.40;;
18322;SDS011;9287;49.456;11.064;2024-02-26T02:04:07;9.50;;;6.73;;
18322;SDS011;9287;49.456;11.064;2024-02-26T02:06:35;9.93;;;7.23;;
18322;SDS011;9287;49.456;11.064;2024-02-26T02:09:03;9.77;;;7.20;;
18322;SDS011;9287;49.456;11.064;2024-02-26T02:11:33;11.20;;;7.20;;
18322;SDS011;9287;49.456;11.064;2024-02-26T02:14:03;10.33;;;7.50;;
18322;SDS011;9287;49.456;11.064;2024-02-26T02:16:31;10.77;;;6.73;;
18322;SDS011;9287;49.456;11.064;2024-02-26T02:18:59;11.37;;;7.40;;
18322;SDS011;9287;49.456;11.064;2024-02-26T02:21:28;9.53;;;6.83;;
18322;SDS011;9287;49.456;11.064;2024-02-26T02:23:56;11.87;;;7.47;;
18322;SDS011;9287;49.456;11.064;2024-02-26T02:26:24;10.50;;;6.90;;
18322;SDS011;9287;49.456;11.064;2024-02-26T02:28:52;8.20;;;6.00;;
18322;SDS011;9287;49.456;11.064;2024-02-26T02:31:20;10.97;;;7.60;;
18322;SDS011;9287;49.456;11.064;2024-02-26T02:33:48;10.23;;;7.20;;
18322;SDS011;9287;49.456;11.064;2024-02-26T02:36:16;11.33;;;7.07;;
18322;SDS011;9287;49.456;11.064;2024-02-26T02:38:49;8.90;;;6.43;;
18322;SDS011;9287;49.456;11.064;2024-02-26T02:41:18;11.67;;;6.87;;
18322;SDS011;9287;49.456;11.064;2024-02-26T02:43:46;10.57;;;7.20;;
18322;SDS011;9287;49.456;11.064;2024-02-26T02:46:14;9.67;;;6.47;;
18322;SDS011;9287;49.456;11.064;2024-02-26T02:48:41;9.40;;;6.73;;
18322;SDS011;9287;49.456;11.064;2024-02-26T02:51:10;10.30;;;6.50;;
18322;SDS011;9287;49.456;11.064;2024-02-26T02:53:37;13.50;;;6.33;;
18322;SDS011;9287;49.456;11.064;2024-02-26T02:56:07;9.80;;;6.43;;
18322;SDS011;9287;49.456;11.064;2024-02-26T02:58:35;9.17;;;6.17;;
18322;SDS011;9287;49.456;11.064;2024-02-26T03:01:02;9.27;;;5.80;;
18322;SDS011;9287;49.456;11.064;2024-02-26T03:03:30;9.50;;;6.00;;
18322;SDS011;9287;49.456;11.064;2024-02-26T03:05:58;9.70;;;6.27;;
18322;SDS011;9287;49.456;11.064;2024-02-26T03:08:26;9.37;;;6.10;;
18322;SDS011;9287;49.456;11.064;2024-02-26T03:10:53;9.50;;;5.40;;
18322;SDS011;9287;49.456;11.064;2024-02-26T03:13:22;8.30;;;5.73;;
18322;SDS011;9287;49.456;11.064;2024-02-26T03:15:50;12.20;;;6.83;;
18322;SDS011;9287;49.456;11.064;2024-02-26T03:18:18;8.57;;;6.07;;
18322;SDS011;9287;49.456;11.064;2024-02-26T03:20:46;9.47;;;5.63;;
18322;SDS011;9287;49.456;11.064;2024-02-26T03:23:14;9.80;;;6.63;;
18322;SDS011;9287;49.456;11.064;2024-02-26T03:25:44;6.97;;;5.53;;
18322;SDS011;9287;49.456;11.064;2024-02-26T03:28:14;7.53;;;5.70;;
18322;SDS011;9287;49.456;11.064;2024-02-26T03:30:43;8.90;;;6.27;;
18322;SDS011;9287;49.456;11.064;2024-02-26T03:33:11;7.80;;;5.60;;
18322;SDS011;9287;49.456;11.064;2024-02-26T03:35:39;7.97;;;5.50;;
18322;SDS011;9287;49.456;11.064;2024-02-26T03:38:07;9.03;;;5.93;;
18322;SDS011;9287;49.456;11.064;2024-02-26T03:40:34;7.20;;;5.27;;
18322;SDS011;9287;49.456;11.064;2024-02-26T03:43:02;8.53;;;5.63;;
18322;SDS011;9287;49.456;11.064;2024-02-26T03:45:32;7.70;;;5.33;;
18322;SDS011;9287;49.456;11.064;2024-02-26T03:48:02;8.10;;;5.77;;
18322;SDS011;9287;49.456;11.064;2024-02-26T03:50:30;7.17;;;5.30;;
18322;SDS011;9287;49.456;11.064;2024-02-26T03:52:58;8.70;;;5.60;;
18322;SDS011;9287;49.456;11.064;2024-02-26T03:55:26;9.50;;;6.73;;
18322;SDS011;9287;49.456;11.064;2024-02-26T03:57:54;8.33;;;5.80;;
18322;SDS011;9287;49.456;11.064;2024-02-26T04:00:22;10.87;;;6.10;;
18322;SDS011;9287;49.456;11.064;2024-02-26T04:02:51;8.70;;;6.57;;
18322;SDS011;9287;49.456;11.064;2024-02-26T04:05:21;7.03;;;4.60;;
18322;SDS011;9287;49.456;11.064;2024-02-26T04:07:48;7.77;;;5.53;;
18322;SDS011;9287;49.456;11.064;2024-02-26T04:10:16;8.23;;;5.40;;
18322;SDS011;9287;49.456;11.064;2024-02-26T04:12:44;7.90;;;5.27;;
18322;SDS011;9287;49.456;11.064;2024-02-26T04:15:12;7.60;;;5.43;;
18322;SDS011;9287;49.456;11.064;2024-02-26T04:17:40;6.83;;;5.17;;
18322;SDS011;9287;49.456;11.064;2024-02-26T04:20:12;7.90;;;5.37;;
18322;SDS011;9287;49.456;11.064;2024-02-26T04:22:43;8.47;;;5.67;;
18322;SDS011;9287;49.456;11.064;2024-02-26T04:25:11;7.97;;;5.73;;
18322;SDS011;9287;49.456;11.064;2024-02-26T04:27:40;10.27;;;5.90;;
18322;SDS011;9287;49.456;11.064;2024-02-26T04:30:08;6.90;;;5.07;;
18322;SDS011;9287;49.456;11.064;2024-02-26T04:32:36;9.47;;;5.47;;
18322;SDS011;9287;49.456;11.064;2024-02-26T04:35:04;11.90;;;5.17;;
18322;SDS011;9287;49.456;11.064;2024-02-26T04:37:32;6.60;;;4.83;;
18322;SDS011;9287;49.456;11.064;2024-02-26T04:40:02;7.80;;;4.70;;
18322;SDS011;9287;49.456;11.064;2024-02-26T04:42:30;6.57;;;4.70;;
18322;SDS011;9287;49.456;11.064;2024-02-26T04:44:58;6.83;;;4.43;;
18322;SDS011;9287;49.456;11.064;2024-02-26T04:47:26;6.43;;;4.60;;
18322;SDS011;9287;49.456;11.064;2024-02-26T04:49:54;6.60;;;4.63;;
18322;SDS011;9287;49.456;11.064;2024-02-26T04:52:22;7.93;;;4.47;;
18322;SDS011;9287;49.456;11.064;2024-02-26T04:54:50;6.17;;;4.30;;
18322;SDS011;9287;49.456;11.064;2024-02-26T04:57:19;5.33;;;4.07;;
18322;SDS011;9287;49.456;11.064;2024-02-26T04:59:47;8.70;;;4.23;;
18322;SDS011;9287;49.456;11.064;2024-02-26T05:02:15;7.37;;;4.53;;
18322;SDS011;9287;49.456;11.064;2024-02-26T05:04:43;6.60;;;3.83;;
18322;SDS011;9287;49.456;11.064;2024-02-26T05:07:11;4.90;;;4.37;;
18322;SDS011;9287;49.456;11.064;2024-02-26T05:09:39;5.23;;;3.43;;
18322;SDS011;9287;49.456;11.064;2024-02-26T05:12:08;5.13;;;3.53;;
18322;SDS011;9287;49.456;11.064;2024-02-26T05:14:38;3.90;;;3.30;;
18322;SDS011;9287;49.456;11.064;2024-02-26T05:17:06;5.60;;;3.53;;
18322;SDS011;9287;49.456;11.064;2024-02-26T05:19:34;4.43;;;3.47;;
18322;SDS011;9287;49.456;11.064;2024-02-26T05:22:02;5.13;;;3.53;;
18322;SDS011;9287;49.456;11.064;2024-02-26T05:24:30;5.00;;;3.10;;
18322;SDS011;9287;49.456;11.064;2024-02-26T05:26:58;7.13;;;3.10;;
18322;SDS011;9287;49.456;11.064;2024-02-26T05:29:28;4.07;;;2.77;;
18322;SDS011;9287;49.456;11.064;2024-02-26T05:31:57;3.97;;;3.23;;
18322;SDS011;9287;49.456;11.064;2024-02-26T05:34:25;4.13;;;2.87;;
18322;SDS011;9287;49.456;11.064;2024-02-26T05:36:53;3.60;;;2.60;;
18322;SDS011;9287;49.456;11.064;2024-02-26T05:39:20;2.93;;;2.63;;
18322;SDS011;9287;49.456;11.064;2024-02-26T05:41:48;4.17;;;2.87;;
18322;SDS011;9287;49.456;11.064;2024-02-26T05:44:16;4.20;;;2.60;;
18322;SDS011;9287;49.456;11.064;2024-02-26T05:46:44;3.43;;;2.73;;
18322;SDS011;9287;49.456;11.064;2024-02-26T05:49:13;5.37;;;2.93;;
18322;SDS011;9287;49.456;11.064;2024-02-26T05:51:41;3.60;;;2.60;;
18322;SDS011;9287;49.456;11.064;2024-02-26T05:54:09;3.57;;;2.83;;
18322;SDS011;9287;49.456;11.064;2024-02-26T05:56:37;3.47;;;2.70;;
18322;SDS011;9287;49.456;11.064;2024-02-26T05:59:05;3.47;;;2.33;;
18322;SDS011;9287;49.456;11.064;2024-02-26T06:01:33;4.60;;;2.40;;
18322;SDS011;9287;49.456;11.064;2024-02-26T06:04:01;4.23;;;2.60;;
18322;SDS011;9287;49.456;11.064;2024-02-26T06:06:30;4.17;;;2.93;;
18322;SDS011;9287;49.456;11.064;2024-02-26T06:08:58;3.70;;;2.60;;
18322;SDS011;9287;49.456;11.064;2024-02-26T06:11:26;3.40;;;2.80;;
18322;SDS011;9287;49.456;11.064;2024-02-26T06:13:54;3.10;;;2.23;;
18322;SDS011;9287;49.456;11.064;2024-02-26T06:16:22;3.57;;;2.53;;
18322;SDS011;9287;49.456;11.064;2024-02-26T06:18:50;2.93;;;2.37;;
18322;SDS011;9287;49.456;11.064;2024-02-26T06:21:18;3.13;;;2.67;;
18322;SDS011;9287;49.456;11.064;2024-02-26T06:23:47;2.83;;;2.10;;
18322;SDS011;9287;49.456;11.064;2024-02-26T06:26:15;4.03;;;3.00;;
18322;SDS011;9287;49.456;11.064;2024-02-26T06:28:43;3.67;;;2.73;;
18322;SDS011;9287;49.456;11.064;2024-02-26T06:31:11;3.93;;;2.40;;
18322;SDS011;9287;49.456;11.064;2024-02-26T06:33:39;3.20;;;2.90;;
18322;SDS011;9287;49.456;11.064;2024-02-26T06:36:07;3.30;;;2.70;;
18322;SDS011;9287;49.456;11.064;2024-02-26T06:38:35;3.17;;;2.40;;
18322;SDS011;9287;49.456;11.064;2024-02-26T06:41:04;3.17;;;2.83;;
18322;SDS011;9287;49.456;11.064;2024-02-26T06:43:32;4.27;;;2.63;;
18322;SDS011;9287;49.456;11.064;2024-02-26T06:46:00;3.50;;;2.93;;
18322;SDS011;9287;49.456;11.064;2024-02-26T06:48:28;2.50;;;2.30;;
18322;SDS011;9287;49.456;11.064;2024-02-26T06:50:56;3.43;;;2.53;;
18322;SDS011;9287;49.456;11.064;2024-02-26T06:53:24;3.23;;;2.10;;
18322;SDS011;9287;49.456;11.064;2024-02-26T06:55:52;3.73;;;2.47;;
18322;SDS011;9287;49.456;11.064;2024-02-26T06:58:21;4.47;;;2.67;;
18322;SDS011;9287;49.456;11.064;2024-02-26T07:00:50;3.17;;;2.43;;
18322;SDS011;9287;49.456;11.064;2024-02-26T07:03:18;4.77;;;2.47;;
18322;SDS011;9287;49.456;11.064;2024-02-26T07:05:46;2.77;;;2.50;;
18322;SDS011;9287;49.456;11.064;2024-02-26T07:08:14;3.67;;;2.60;;
18322;SDS011;9287;49.456;11.064;2024-02-26T07:10:42;4.33;;;2.67;;
18322;SDS011;9287;49.456;11.064;2024-02-26T07:13:10;3.03;;;2.47;;
18322;SDS011;9287;49.456;11.064;2024-02-26T07:15:39;7.03;;;2.83;;
18322;SDS011;9287;49.456;11.064;2024-02-26T07:18:07;4.00;;;3.27;;
18322;SDS011;9287;49.456;11.064;2024-02-26T07:20:35;3.40;;;2.50;;
18322;SDS011;9287;49.456;11.064;2024-02-26T07:23:03;4.63;;;3.20;;
18322;SDS011;9287;49.456;11.064;2024-02-26T07:25:31;6.07;;;2.93;;
18322;SDS011;9287;49.456;11.064;2024-02-26T07:27:58;4.00;;;2.90;;
18322;SDS011;9287;49.456;11.064;2024-02-26T07:30:26;3.80;;;2.93;;
18322;SDS011;9287;49.456;11.064;2024-02-26T07:32:55;4.03;;;3.00;;
18322;SDS011;9287;49.456;11.064;2024-02-26T07:35:24;3.37;;;2.87;;
18322;SDS011;9287;49.456;11.064;2024-02-26T07:37:53;3.53;;;2.70;;
18322;SDS011;9287;49.456;11.064;2024-02-26T07:40:21;6.57;;;3.40;;
18322;SDS011;9287;49.456;11.064;2024-02-26T07:42:49;3.10;;;2.80;;
18322;SDS011;9287;49.456;11.064;2024-02-26T07:45:17;4.13;;;3.17;;
18322;SDS011;9287;49.456;11.064;2024-02-26T07:47:47;3.83;;;2.93;;
18322;SDS011;9287;49.456;11.064;2024-02-26T07:50:16;4.13;;;2.70;;
18322;SDS011;9287;49.456;11.064;2024-02-26T07:52:44;3.40;;;3.10;;
18322;SDS011;9287;49.456;11.064;2024-02-26T07:55:12;5.30;;;2.90;;
18322;SDS011;9287;49.456;11.064;2024-02-26T07:57:42;4.33;;;2.53;;
18322;SDS011;9287;49.456;11.064;2024-02-26T08:00:11;3.13;;;2.60;;
18322;SDS011;9287;49.456;11.064;2024-02-26T08:02:43;4.10;;;2.03;;
18322;SDS011;9287;49.456;11.064;2024-02-26T08:05:11;2.17;;;1.97;;
18322;SDS011;9287;49.456;11.064;2024-02-26T08:07:40;2.67;;;2.20;;
18322;SDS011;9287;49.456;11.064;2024-02-26T08:10:08;4.03;;;2.07;;
18322;SDS011;9287;49.456;11.064;2024-02-26T08:12:37;3.17;;;2.60;;
18322;SDS011;9287;49.456;11.064;2024-02-26T08:15:05;3.70;;;2.80;;
18322;SDS011;9287;49.456;11.064;2024-02-26T08:17:34;4.20;;;1.70;;
18322;SDS011;9287;49.456;11.064;2024-02-26T08:20:02;6.33;;;2.70;;
18322;SDS011;9287;49.456;11.064;2024-02-26T08:22:30;4.37;;;2.67;;
18322;SDS011;9287;49.456;11.064;2024-02-26T08:25:00;3.83;;;2.40;;
18322;SDS011;9287;49.456;11.064;2024-02-26T08:27:32;4.90;;;2.30;;
18322;SDS011;9287;49.456;11.064;2024-02-26T08:30:00;2.53;;;2.13;;
18322;SDS011;9287;49.456;11.064;2024-02-26T08:32:28;3.27;;;2.63;;
18322;SDS011;9287;49.456;11.064;2024-02-26T08:34:56;2.93;;;1.97;;
18322;SDS011;9287;49.456;11.064;2024-02-26T08:37:24;4.67;;;2.43;;
18322;SDS011;9287;49.456;11.064;2024-02-26T08:39:52;2.37;;;2.10;;
18322;SDS011;9287;49.456;11.064;2024-02-26T08:42:21;3.77;;;2.07;;
18322;SDS011;9287;49.456;11.064;2024-02-26T08:44:50;2.93;;;2.07;;
18322;SDS011;9287;49.456;11.064;2024-02-26T08:47:21;2.47;;;2.27;;
18322;SDS011;9287;49.456;11.064;2024-02-26T08:49:49;2.70;;;2.10;;
18322;SDS011;9287;49.456;11.064;2024-02-26T08:52:17;2.17;;;1.90;;
18322;SDS011;9287;49.456;11.064;2024-02-26T08:54:44;3.97;;;1.97;;
18322;SDS011;9287;49.456;11.064;2024-02-26T08:57:11;3.47;;;2.40;;
18322;SDS011;9287;49.456;11.064;2024-02-26T08:59:41;2.23;;;1.60;;
18322;SDS011;9287;49.456;11.064;2024-02-26T09:02:08;2.67;;;1.80;;
18322;SDS011;9287;49.456;11.064;2024-02-26T09:04:36;5.67;;;2.17;;
18322;SDS011;9287;49.456;11.064;2024-02-26T09:07:04;4.07;;;2.07;;
18322;SDS011;9287;49.456;11.064;2024-02-26T09:09:32;2.60;;;1.90;;
18322;SDS011;9287;49.456;11.064;2024-02-26T09:12:00;4.40;;;2.10;;
18322;SDS011;9287;49.456;11.064;2024-02-26T09:14:29;2.53;;;1.90;;
18322;SDS011;9287;49.456;11.064;2024-02-26T09:16:58;3.57;;;2.40;;
18322;SDS011;9287;49.456;11.064;2024-02-26T09:19:26;2.63;;;2.03;;
18322;SDS011;9287;49.456;11.064;2024-02-26T09:21:54;5.23;;;2.30;;
18322;SDS011;9287;49.456;11.064;2024-02-26T09:24:24;3.00;;;2.00;;
18322;SDS011;9287;49.456;11.064;2024-02-26T09:26:52;4.10;;;1.53;;
18322;SDS011;9287;49.456;11.064;2024-02-26T09:29:20;3.03;;;1.97;;
18322;SDS011;9287;49.456;11.064;2024-02-26T09:31:47;3.60;;;2.23;;
18322;SDS011;9287;49.456;11.064;2024-02-26T09:34:17;2.03;;;1.60;;
18322;SDS011;9287;49.456;11.064;2024-02-26T09:36:45;4.20;;;2.00;;
18322;SDS011;9287;49.456;11.064;2024-02-26T09:39:12;2.73;;;2.03;;
18322;SDS011;9287;49.456;11.064;2024-02-26T09:41:46;2.73;;;2.43;;
18322;SDS011;9287;49.456;11.064;2024-02-26T09:44:15;2.57;;;2.10;;
18322;SDS011;9287;49.456;11.064;2024-02-26T09:46:47;3.90;;;2.37;;
18322;SDS011;9287;49.456;11.064;2024-02-26T09:49:17;3.47;;;2.50;;
18322;SDS011;9287;49.456;11.064;2024-02-26T09:51:47;4.60;;;2.43;;
18322;SDS011;9287;49.456;11.064;2024-02-26T09:54:17;3.83;;;2.23;;
18322;SDS011;9287;49.456;11.064;2024-02-26T09:56:45;4.83;;;2.37;;
18322;SDS011;9287;49.456;11.064;2024-02-26T09:59:29;2.87;;;2.23;;
18322;SDS011;9287;49.456;11.064;2024-02-26T10:02:06;3.23;;;1.90;;
18322;SDS011;9287;49.456;11.064;2024-02-26T10:04:38;3.90;;;2.37;;
18322;SDS011;9287;49.456;11.064;2024-02-26T10:07:10;3.73;;;2.17;;
18322;SDS011;9287;49.456;11.064;2024-02-26T10:09:39;2.77;;;2.13;;
18322;SDS011;9287;49.456;11.064;2024-02-26T10:12:08;4.57;;;2.30;;
18322;SDS011;9287;49.456;11.064;2024-02-26T10:14:38;2.93;;;2.03;;
18322;SDS011;9287;49.456;11.064;2024-02-26T10:17:06;3.57;;;2.10;;
18322;SDS011;9287;49.456;11.064;2024-02-26T10:19:35;2.27;;;2.10;;
18322;SDS011;9287;49.456;11.064;2024-02-26T10:22:06;2.33;;;1.90;;
18322;SDS011;9287;49.456;11.064;2024-02-26T10:24:34;3.23;;;2.00;;
18322;SDS011;9287;49.456;11.064;2024-02-26T10:27:02;2.90;;;2.33;;
18322;SDS011;9287;49.456;11.064;2024-02-26T10:29:31;2.43;;;2.10;;
18322;SDS011;9287;49.456;11.064;2024-02-26T10:31:58;3.43;;;2.33;;
18322;SDS011;9287;49.456;11.064;2024-02-26T10:34:26;3.73;;;2.53;;
18322;SDS011;9287;49.456;11.064;2024-02-26T10:36:55;5.47;;;2.53;;
18322;SDS011;9287;49.456;11.064;2024-02-26T10:39:25;1.77;;;1.53;;
18322;SDS011;9287;49.456;11.064;2024-02-26T10:41:53;2.30;;;1.50;;
18322;SDS011;9287;49.456;11.064;2024-02-26T10:44:20;2.67;;;1.90;;
18322;SDS011;9287;49.456;11.064;2024-02-26T10:46:48;3.10;;;1.80;;
18322;SDS011;9287;49.456;11.064;2024-02-26T10:49:17;2.20;;;1.80;;
18322;SDS011;9287;49.456;11.064;2024-02-26T10:51:50;1.83;;;1.27;;
18322;SDS011;9287;49.456;11.064;2024-02-26T10:54:22;1.87;;;1.20;;
18322;SDS011;9287;49.456;11.064;2024-02-26T10:56:54;1.90;;;1.33;;
18322;SDS011;9287;49.456;11.064;2024-02-26T10:59:24;2.77;;;1.60;;
18322;SDS011;9287;49.456;11.064;2024-02-26T11:01:52;1.63;;;1.00;;
18322;SDS011;9287;49.456;11.064;2024-02-26T11:04:22;1.23;;;1.00;;
18322;SDS011;9287;49.456;11.064;2024-02-26T11:06:51;1.63;;;1.00;;
18322;SDS011;9287;49.456;11.064;2024-02-26T11:09:22;3.73;;;1.07;;
18322;SDS011;9287;49.456;11.064;2024-02-26T11:11:53;2.30;;;1.20;;
18322;SDS011;9287;49.456;11.064;2024-02-26T11:14:22;1.10;;;1.00;;
18322;SDS011;9287;49.456;11.064;2024-02-26T11:16:52;1.10;;;1.00;;
18322;SDS011;9287;49.456;11.064;2024-02-26T11:19:22;1.70;;;0.93;;
18322;SDS011;9287;49.456;11.064;2024-02-26T11:21:52;1.33;;;1.03;;
18322;SDS011;9287;49.456;11.064;2024-02-26T11:24:20;1.20;;;0.90;;
18322;SDS011;9287;49.456;11.064;2024-02-26T11:26:50;6.77;;;1.30;;
18322;SDS011;9287;49.456;11.064;2024-02-26T11:29:25;1.63;;;0.90;;
18322;SDS011;9287;49.456;11.064;2024-02-26T11:31:59;2.37;;;1.40;;
18322;SDS011;9287;49.456;11.064;2024-02-26T11:34:27;2.40;;;1.00;;
18322;SDS011;9287;49.456;11.064;2024-02-26T11:36:56;4.63;;;1.17;;
18322;SDS011;9287;49.456;11.064;2024-02-26T11:39:24;2.57;;;1.00;;
18322;SDS011;9287;49.456;11.064;2024-02-26T11:41:54;2.90;;;1.23;;
18322;SDS011;9287;49.456;11.064;2024-02-26T11:44:28;1.33;;;1.10;;
18322;SDS011;9287;49.456;11.064;2024-02-26T11:46:56;2.10;;;1.00;;
18322;SDS011;9287;49.456;11.064;2024-02-26T11:49:31;2.27;;;1.03;;
18322;SDS011;9287;49.456;11.064;2024-02-26T11:51:59;1.33;;;1.00;;
18322;SDS011;9287;49.456;11.064;2024-02-26T11:54:39;2.57;;;1.03;;
18322;SDS011;9287;49.456;11.064;2024-02-26T11:57:27;2.08;;;1.40;;
18322;SDS011;9287;49.456;11.064;2024-02-26T12:00:00;1.88;;;1.30;;
18322;SDS011;9287;49.456;11.064;2024-02-26T12:02:45;1.48;;;1.10;;
18322;SDS011;9287;49.456;11.064;2024-02-26T12:05:15;2.20;;;1.30;;
18322;SDS011;9287;49.456;11.064;2024-02-26T12:07:44;1.65;;;1.55;;
18322;SDS011;9287;49.456;11.064;2024-02-26T12:10:13;1.38;;;1.20;;
18322;SDS011;9287;49.456;11.064;2024-02-26T12:12:44;1.27;;;1.10;;
18322;SDS011;9287;49.456;11.064;2024-02-26T12:15:12;1.40;;;1.00;;
18322;SDS011;9287;49.456;11.064;2024-02-26T12:17:43;1.20;;;1.10;;
18322;SDS011;9287;49.456;11.064;2024-02-26T12:20:15;2.45;;;1.20;;
18322;SDS011;9287;49.456;11.064;2024-02-26T12:22:46;2.30;;;1.30;;
18322;SDS011;9287;49.456;11.064;2024-02-26T12:25:14;1.67;;;1.00;;
18322;SDS011;9287;49.456;11.064;2024-02-26T12:27:44;1.25;;;1.15;;
18322;SDS011;9287;49.456;11.064;2024-02-26T12:30:12;1.38;;;1.10;;
18322;SDS011;9287;49.456;11.064;2024-02-26T12:32:40;1.10;;;0.90;;
18322;SDS011;9287;49.456;11.064;2024-02-26T12:35:08;1.42;;;1.10;;
18322;SDS011;9287;49.456;11.064;2024-02-26T12:37:36;2.25;;;1.02;;
18322;SDS011;9287;49.456;11.064;2024-02-26T12:40:08;1.67;;;1.35;;
18322;SDS011;9287;49.456;11.064;2024-02-26T12:42:38;2.58;;;1.40;;
18322;SDS011;9287;49.456;11.064;2024-02-26T12:45:08;5.80;;;2.00;;
18322;SDS011;9287;49.456;11.064;2024-02-26T12:47:38;2.00;;;1.30;;
18322;SDS011;9287;49.456;11.064;2024-02-26T12:50:07;1.52;;;1.10;;
18322;SDS011;9287;49.456;11.064;2024-02-26T12:52:37;2.13;;;1.10;;
18322;SDS011;9287;49.456;11.064;2024-02-26T12:55:07;1.58;;;1.30;;
18322;SDS011;9287;49.456;11.064;2024-02-26T12:57:36;1.85;;;1.08;;
18322;SDS011;9287;49.456;11.064;2024-02-26T13:00:06;1.92;;;1.20;;
18322;SDS011;9287;49.456;11.064;2024-02-26T13:02:38;1.15;;;1.05;;
18322;SDS011;9287;49.456;11.064;2024-02-26T13:05:07;1.20;;;0.90;;
18322;SDS011;9287;49.456;11.064;2024-02-26T13:07:40;1.05;;;0.73;;
18322;SDS011;9287;49.456;11.064;2024-02-26T13:10:08;1.08;;;0.80;;
18322;SDS011;9287;49.456;11.064;2024-02-26T13:12:41;1.17;;;0.90;;
18322;SDS011;9287;49.456;11.064;2024-02-26T13:15:15;0.70;;;0.70;;
18322;SDS011;9287;49.456;11.064;2024-02-26T13:17:44;0.80;;;0.80;;
18322;SDS011;9287;49.456;11.064;2024-02-26T13:20:12;1.13;;;0.88;;
18322;SDS011;9287;49.456;11.064;2024-02-26T13:22:41;2.07;;;0.80;;
18322;SDS011;9287;49.456;11.064;2024-02-26T13:25:09;0.70;;;0.70;;
18322;SDS011;9287;49.456;11.064;2024-02-26T13:27:37;1.27;;;0.80;;
18322;SDS011;9287;49.456;11.064;2024-02-26T13:30:06;0.87;;;0.80;;
18322;SDS011;9287;49.456;11.064;2024-02-26T13:32:39;0.70;;;0.63;;
18322;SDS011;9287;49.456;11.064;2024-02-26T13:35:08;1.20;;;0.70;;
18322;SDS011;9287;49.456;11.064;2024-02-26T13:37:37;0.90;;;0.70;;
18322;SDS011;9287;49.456;11.064;2024-02-26T13:40:06;0.80;;;0.70;;
18322;SDS011;9287;49.456;11.064;2024-02-26T13:42:35;0.60;;;0.60;;
18322;SDS011;9287;49.456;11.064;2024-02-26T13:45:03;0.60;;;0.60;;
18322;SDS011;9287;49.456;11.064;2024-02-26T13:47:33;2.07;;;0.80;;
18322;SDS011;9287;49.456;11.064;2024-02-26T13:50:02;0.90;;;0.60;;
18322;SDS011;9287;49.456;11.064;2024-02-26T13:52:32;1.03;;;0.50;;
18322;SDS011;9287;49.456;11.064;2024-02-26T13:55:00;1.10;;;0.53;;
18322;SDS011;9287;49.456;11.064;2024-02-26T13:57:29;1.93;;;0.57;;
18322;SDS011;9287;49.456;11.064;2024-02-26T13:59:57;0.53;;;0.53;;
18322;SDS011;9287;49.456;11.064;2024-02-26T14:02:25;0.60;;;0.50;;
18322;SDS011;9287;49.456;11.064;2024-02-26T14:04:52;0.60;;;0.50;;
18322;SDS011;9287;49.456;11.064;2024-02-26T14:07:21;1.23;;;0.67;;
18322;SDS011;9287;49.456;11.064;2024-02-26T14:09:49;2.83;;;0.60;;
18322;SDS011;9287;49.456;11.064;2024-02-26T14:12:18;0.50;;;0.50;;
18322;SDS011;9287;49.456;11.064;2024-02-26T14:14:51;0.40;;;0.40;;
18322;SDS011;9287;49.456;11.064;2024-02-26T14:17:22;0.40;;;0.40;;
18322;SDS011;9287;49.456;11.064;2024-02-26T14:19:49;0.50;;;0.50;;
18322;SDS011;9287;49.456;11.064;2024-02-26T14:22:17;1.67;;;0.50;;
18322;SDS011;9287;49.456;11.064;2024-02-26T14:24:47;0.90;;;0.60;;
18322;SDS011;9287;49.456;11.064;2024-02-26T14:27:15;0.67;;;0.50;;
18322;SDS011;9287;49.456;11.064;2024-02-26T14:29:43;0.80;;;0.60;;
18322;SDS011;9287;49.456;11.064;2024-02-26T14:32:11;0.83;;;0.50;;
18322;SDS011;9287;49.456;11.064;2024-02-26T14:34:39;1.40;;;0.70;;
18322;SDS011;9287;49.456;11.064;2024-02-26T14:37:07;0.60;;;0.60;;
18322;SDS011;9287;49.456;11.064;2024-02-26T14:39:35;0.60;;;0.60;;
18322;SDS011;9287;49.456;11.064;2024-02-26T14:42:06;0.93;;;0.60;;
18322;SDS011;9287;49.456;11.064;2024-02-26T14:44:34;0.93;;;0.70;;
18322;SDS011;9287;49.456;11.064;2024-02-26T14:47:02;0.90;;;0.80;;
18322;SDS011;9287;49.456;11.064;2024-02-26T14:49:30;1.00;;;0.90;;
18322;SDS011;9287;49.456;11.064;2024-02-26T14:51:58;1.33;;;0.70;;
18322;SDS011;9287;49.456;11.064;2024-02-26T14:54:26;2.20;;;1.30;;
18322;SDS011;9287;49.456;11.064;2024-02-26T14:56:54;1.10;;;1.00;;